sensor_id;sensor_type;location;lat;lon;timestamp;pressure;altitude;pressure_sealevel;temperature;humidity
21431;BME280;10876;49.038;10.608;2023-03-11T00:00:54;97589.28;;;2.02;100.00
21431;BME280;10876;49.038;10.608;2023-03-11T00:03:21;97594.19;;;2.00;100.00
21431;BME280;10876;49.038;10.608;2023-03-11T00:05:50;97594.44;;;1.99;100.00
21431;BME280;10876;49.038;10.608;2023-03-11T00:08:18;97593.88;;;2.02;100.00
21431;BME280;10876;49.038;10.608;2023-03-11T00:10:47;97579.84;;;2.00;100.00
21431;BME280;10876;49.038;10.608;2023-03-11T00:13:17;97595.47;;;2.03;100.00
21431;BME280;10876;49.038;10.608;2023-03-11T00:15:47;97608.22;;;1.97;100.00
21431;BME280;10876;49.038;10.608;2023-03-11T00:18:15;97610.63;;;1.99;100.00
21431;BME280;10876;49.038;10.608;2023-03-11T00:20:44;97605.00;;;1.95;100.00
21431;BME280;10876;49.038;10.608;2023-03-11T00:23:12;97610.44;;;1.90;100.00
21431;BME280;10876;49.038;10.608;2023-03-11T00:25:42;97610.47;;;1.85;100.00
21431;BME280;10876;49.038;10.608;2023-03-11T00:28:10;97626.44;;;1.82;100.00
21431;BME280;10876;49.038;10.608;2023-03-11T00:30:38;97629.16;;;1.76;100.00
21431;BME280;10876;49.038;10.608;2023-03-11T00:33:07;97642.41;;;1.78;100.00
21431;BME280;10876;49.038;10.608;2023-03-11T00:35:34;97640.53;;;1.73;100.00
21431;BME280;10876;49.038;10.608;2023-03-11T00:38:03;97663.72;;;1.74;100.00
21431;BME280;10876;49.038;10.608;2023-03-11T00:40:32;97664.78;;;1.78;100.00
21431;BME280;10876;49.038;10.608;2023-03-11T00:42:59;97664.78;;;1.78;100.00
21431;BME280;10876;49.038;10.608;2023-03-11T00:45:27;97667.47;;;1.84;100.00
21431;BME280;10876;49.038;10.608;2023-03-11T00:47:54;97659.34;;;1.84;100.00
21431;BME280;10876;49.038;10.608;2023-03-11T00:50:26;97659.06;;;1.85;100.00
21431;BME280;10876;49.038;10.608;2023-03-11T00:52:53;97665.56;;;1.84;100.00
21431;BME280;10876;49.038;10.608;2023-03-11T00:55:24;97667.72;;;1.82;100.00
21431;BME280;10876;49.038;10.608;2023-03-11T00:57:52;97671.22;;;1.83;100.00
21431;BME280;10876;49.038;10.608;2023-03-11T01:00:20;97671.75;;;1.85;100.00
21431;BME280;10876;49.038;10.608;2023-03-11T01:02:48;97677.41;;;1.83;100.00
21431;BME280;10876;49.038;10.608;2023-03-11T01:05:17;97683.38;;;1.80;100.00
21431;BME280;10876;49.038;10.608;2023-03-11T01:07:46;97689.63;;;1.75;100.00
21431;BME280;10876;49.038;10.608;2023-03-11T01:10:13;97699.63;;;1.75;100.00
21431;BME280;10876;49.038;10.608;2023-03-11T01:12:41;97701.56;;;1.69;100.00
21431;BME280;10876;49.038;10.608;2023-03-11T01:15:15;97702.06;;;1.71;100.00
21431;BME280;10876;49.038;10.608;2023-03-11T01:17:43;97702.34;;;1.70;100.00
21431;BME280;10876;49.038;10.608;2023-03-11T01:20:11;97699.69;;;1.65;100.00
21431;BME280;10876;49.038;10.608;2023-03-11T01:22:38;97699.66;;;1.70;100.00
21431;BME280;10876;49.038;10.608;2023-03-11T01:25:08;97694.03;;;1.61;100.00
21431;BME280;10876;49.038;10.608;2023-03-11T01:27:36;97698.06;;;1.64;100.00
21431;BME280;10876;49.038;10.608;2023-03-11T01:30:03;97683.22;;;1.66;100.00
21431;BME280;10876;49.038;10.608;2023-03-11T01:32:30;97684.31;;;1.60;100.00
21431;BME280;10876;49.038;10.608;2023-03-11T01:34:57;97675.16;;;1.61;100.00
21431;BME280;10876;49.038;10.608;2023-03-11T01:37:24;97689.69;;;1.65;100.00
21431;BME280;10876;49.038;10.608;2023-03-11T01:39:51;97690.53;;;1.61;100.00
21431;BME280;10876;49.038;10.608;2023-03-11T01:42:19;97699.13;;;1.63;100.00
21431;BME280;10876;49.038;10.608;2023-03-11T01:44:46;97689.19;;;1.63;100.00
21431;BME280;10876;49.038;10.608;2023-03-11T01:47:37;97699.41;;;1.66;100.00
21431;BME280;10876;49.038;10.608;2023-03-11T01:50:08;97705.06;;;1.70;100.00
21431;BME280;10876;49.038;10.608;2023-03-11T01:52:37;97709.66;;;1.64;100.00
21431;BME280;10876;49.038;10.608;2023-03-11T01:55:05;97707.50;;;1.66;100.00
21431;BME280;10876;49.038;10.608;2023-03-11T01:57:35;97711.56;;;1.64;100.00
21431;BME280;10876;49.038;10.608;2023-03-11T02:00:07;97711.56;;;1.64;100.00
21431;BME280;10876;49.038;10.608;2023-03-11T02:02:36;97721.03;;;1.56;100.00
21431;BME280;10876;49.038;10.608;2023-03-11T02:05:06;97720.53;;;1.49;100.00
21431;BME280;10876;49.038;10.608;2023-03-11T02:07:33;97730.25;;;1.40;100.00
21431;BME280;10876;49.038;10.608;2023-03-11T02:10:00;97700.13;;;1.27;100.00
21431;BME280;10876;49.038;10.608;2023-03-11T02:12:28;97729.25;;;1.20;100.00
21431;BME280;10876;49.038;10.608;2023-03-11T02:14:58;97714.47;;;1.07;100.00
21431;BME280;10876;49.038;10.608;2023-03-11T02:17:26;97693.75;;;0.98;100.00
21431;BME280;10876;49.038;10.608;2023-03-11T02:20:04;97697.78;;;1.00;100.00
21431;BME280;10876;49.038;10.608;2023-03-11T02:22:37;97701.31;;;0.85;100.00
21431;BME280;10876;49.038;10.608;2023-03-11T02:25:10;97715.88;;;0.84;100.00
21431;BME280;10876;49.038;10.608;2023-03-11T02:27:42;97701.59;;;0.84;100.00
21431;BME280;10876;49.038;10.608;2023-03-11T02:30:13;97709.97;;;0.67;100.00
21431;BME280;10876;49.038;10.608;2023-03-11T02:32:42;97715.09;;;0.68;100.00
21431;BME280;10876;49.038;10.608;2023-03-11T02:35:11;97740.16;;;0.64;100.00
21431;BME280;10876;49.038;10.608;2023-03-11T02:37:43;97743.41;;;0.61;100.00
21431;BME280;10876;49.038;10.608;2023-03-11T02:40:34;97752.00;;;0.48;100.00
21431;BME280;10876;49.038;10.608;2023-03-11T02:43:05;97772.75;;;0.42;100.00
21431;BME280;10876;49.038;10.608;2023-03-11T02:45:34;97773.03;;;0.35;100.00
21431;BME280;10876;49.038;10.608;2023-03-11T02:48:05;97775.16;;;0.33;100.00
21431;BME280;10876;49.038;10.608;2023-03-11T02:50:33;97785.41;;;0.26;100.00
21431;BME280;10876;49.038;10.608;2023-03-11T02:53:02;97790.22;;;0.19;100.00
21431;BME280;10876;49.038;10.608;2023-03-11T02:55:29;97794.00;;;0.18;100.00
21431;BME280;10876;49.038;10.608;2023-03-11T02:57:56;97806.91;;;0.16;100.00
21431;BME280;10876;49.038;10.608;2023-03-11T03:00:25;97809.03;;;0.14;100.00
21431;BME280;10876;49.038;10.608;2023-03-11T03:02:52;97811.75;;;0.09;100.00
21431;BME280;10876;49.038;10.608;2023-03-11T03:05:20;97814.41;;;0.04;100.00
21431;BME280;10876;49.038;10.608;2023-03-11T03:07:47;97810.63;;;-0.01;100.00
21431;BME280;10876;49.038;10.608;2023-03-11T03:10:15;97800.94;;;-0.02;100.00
21431;BME280;10876;49.038;10.608;2023-03-11T03:12:42;97806.06;;;-0.05;100.00
21431;BME280;10876;49.038;10.608;2023-03-11T03:15:10;97799.88;;;-0.06;100.00
21431;BME280;10876;49.038;10.608;2023-03-11T03:17:39;97802.00;;;-0.08;100.00
21431;BME280;10876;49.038;10.608;2023-03-11T03:20:08;97801.97;;;-0.13;100.00
21431;BME280;10876;49.038;10.608;2023-03-11T03:22:38;97801.47;;;-0.10;100.00
21431;BME280;10876;49.038;10.608;2023-03-11T03:25:06;97804.94;;;-0.09;100.00
21431;BME280;10876;49.038;10.608;2023-03-11T03:27:33;97806.28;;;-0.17;100.00
21431;BME280;10876;49.038;10.608;2023-03-11T03:30:01;97815.69;;;-0.14;100.00
21431;BME280;10876;49.038;10.608;2023-03-11T03:32:27;97820.78;;;-0.18;100.00
21431;BME280;10876;49.038;10.608;2023-03-11T03:34:56;97815.44;;;-0.13;100.00
21431;BME280;10876;49.038;10.608;2023-03-11T03:37:25;97814.66;;;-0.08;100.00
21431;BME280;10876;49.038;10.608;2023-03-11T03:39:52;97816.50;;;-0.09;100.00
21431;BME280;10876;49.038;10.608;2023-03-11T03:42:19;97815.72;;;-0.09;100.00
21431;BME280;10876;49.038;10.608;2023-03-11T03:44:46;97824.03;;;-0.16;100.00
21431;BME280;10876;49.038;10.608;2023-03-11T03:47:13;97823.47;;;-0.18;100.00
21431;BME280;10876;49.038;10.608;2023-03-11T03:49:40;97825.13;;;-0.17;100.00
21431;BME280;10876;49.038;10.608;2023-03-11T03:52:09;97831.03;;;-0.20;100.00
21431;BME280;10876;49.038;10.608;2023-03-11T03:54:36;97831.03;;;-0.20;100.00
21431;BME280;10876;49.038;10.608;2023-03-11T03:57:04;97839.09;;;-0.15;100.00
21431;BME280;10876;49.038;10.608;2023-03-11T03:59:31;97842.84;;;-0.21;100.00
21431;BME280;10876;49.038;10.608;2023-03-11T04:01:58;97841.25;;;-0.17;100.00
21431;BME280;10876;49.038;10.608;2023-03-11T04:04:25;97834.78;;;-0.21;100.00
21431;BME280;10876;49.038;10.608;2023-03-11T04:06:52;97842.63;;;-0.09;100.00
21431;BME280;10876;49.038;10.608;2023-03-11T04:09:20;97843.16;;;-0.12;100.00
21431;BME280;10876;49.038;10.608;2023-03-11T04:11:47;97849.63;;;-0.08;100.00
21431;BME280;10876;49.038;10.608;2023-03-11T04:14:14;97853.41;;;-0.04;100.00
21431;BME280;10876;49.038;10.608;2023-03-11T04:16:41;97854.50;;;-0.05;100.00
21431;BME280;10876;49.038;10.608;2023-03-11T04:19:08;97860.69;;;-0.05;100.00
21431;BME280;10876;49.038;10.608;2023-03-11T04:21:35;97856.38;;;-0.01;100.00
21431;BME280;10876;49.038;10.608;2023-03-11T04:24:02;97851.53;;;-0.04;100.00
21431;BME280;10876;49.038;10.608;2023-03-11T04:26:31;97861.75;;;-0.01;100.00
21431;BME280;10876;49.038;10.608;2023-03-11T04:28:58;97866.09;;;0.01;100.00
21431;BME280;10876;49.038;10.608;2023-03-11T04:31:25;97863.91;;;-0.03;100.00
21431;BME280;10876;49.038;10.608;2023-03-11T04:33:52;97857.47;;;-0.02;100.00
21431;BME280;10876;49.038;10.608;2023-03-11T04:36:19;97863.91;;;-0.03;100.00
21431;BME280;10876;49.038;10.608;2023-03-11T04:38:46;97856.88;;;-0.09;100.00
21431;BME280;10876;49.038;10.608;2023-03-11T04:41:13;97866.59;;;-0.08;100.00
21431;BME280;10876;49.038;10.608;2023-03-11T04:43:41;97859.28;;;-0.12;100.00
21431;BME280;10876;49.038;10.608;2023-03-11T04:46:08;97871.97;;;-0.08;100.00
21431;BME280;10876;49.038;10.608;2023-03-11T04:48:35;97869.28;;;-0.08;100.00
21431;BME280;10876;49.038;10.608;2023-03-11T04:51:02;97859.00;;;-0.16;100.00
21431;BME280;10876;49.038;10.608;2023-03-11T04:53:29;97861.44;;;-0.14;100.00
21431;BME280;10876;49.038;10.608;2023-03-11T04:55:56;97860.63;;;-0.15;100.00
21431;BME280;10876;49.038;10.608;2023-03-11T04:58:23;97861.16;;;-0.18;100.00
21431;BME280;10876;49.038;10.608;2023-03-11T05:00:52;97857.63;;;-0.24;100.00
21431;BME280;10876;49.038;10.608;2023-03-11T05:03:20;97864.34;;;-0.26;100.00
21431;BME280;10876;49.038;10.608;2023-03-11T05:05:47;97864.66;;;-0.22;100.00
21431;BME280;10876;49.038;10.608;2023-03-11T05:08:14;97868.91;;;-0.27;100.00
21431;BME280;10876;49.038;10.608;2023-03-11T05:10:41;97861.13;;;-0.28;100.00
21431;BME280;10876;49.038;10.608;2023-03-11T05:13:09;97865.97;;;-0.25;100.00
21431;BME280;10876;49.038;10.608;2023-03-11T05:15:36;97869.16;;;-0.33;100.00
21431;BME280;10876;49.038;10.608;2023-03-11T05:18:04;97876.94;;;-0.32;100.00
21431;BME280;10876;49.038;10.608;2023-03-11T05:20:31;97882.31;;;-0.32;100.00
21431;BME280;10876;49.038;10.608;2023-03-11T05:22:58;97891.72;;;-0.39;100.00
21431;BME280;10876;49.038;10.608;2023-03-11T05:25:25;97890.41;;;-0.37;100.00
21431;BME280;10876;49.038;10.608;2023-03-11T05:27:52;97890.63;;;-0.38;100.00
21431;BME280;10876;49.038;10.608;2023-03-11T05:30:19;97894.41;;;-0.39;100.00
21431;BME280;10876;49.038;10.608;2023-03-11T05:32:46;97898.44;;;-0.42;100.00
21431;BME280;10876;49.038;10.608;2023-03-11T05:35:15;97901.91;;;-0.41;100.00
21431;BME280;10876;49.038;10.608;2023-03-11T05:37:42;97898.16;;;-0.46;100.00
21431;BME280;10876;49.038;10.608;2023-03-11T05:40:10;97908.91;;;-0.46;100.00
21431;BME280;10876;49.038;10.608;2023-03-11T05:42:37;97920.19;;;-0.43;100.00
21431;BME280;10876;49.038;10.608;2023-03-11T05:45:07;97931.75;;;-0.48;100.00
21431;BME280;10876;49.038;10.608;2023-03-11T05:47:34;97922.59;;;-0.47;100.00
21431;BME280;10876;49.038;10.608;2023-03-11T05:50:01;97928.00;;;-0.42;100.00
21431;BME280;10876;49.038;10.608;2023-03-11T05:52:30;97924.81;;;-0.39;100.00
21431;BME280;10876;49.038;10.608;2023-03-11T05:54:58;97919.16;;;-0.37;100.00
21431;BME280;10876;49.038;10.608;2023-03-11T05:57:25;97931.03;;;-0.33;100.00
21431;BME280;10876;49.038;10.608;2023-03-11T05:59:52;97928.63;;;-0.30;100.00
21431;BME280;10876;49.038;10.608;2023-03-11T06:02:19;97930.47;;;-0.35;100.00
21431;BME280;10876;49.038;10.608;2023-03-11T06:04:47;97930.50;;;-0.30;100.00
21431;BME280;10876;49.038;10.608;2023-03-11T06:07:14;97931.06;;;-0.28;100.00
21431;BME280;10876;49.038;10.608;2023-03-11T06:09:43;97925.69;;;-0.28;100.00
21431;BME280;10876;49.038;10.608;2023-03-11T06:12:10;97927.81;;;-0.30;100.00
21431;BME280;10876;49.038;10.608;2023-03-11T06:14:37;97929.97;;;-0.27;100.00
21431;BME280;10876;49.038;10.608;2023-03-11T06:17:04;97928.91;;;-0.26;100.00
21431;BME280;10876;49.038;10.608;2023-03-11T06:19:31;97925.97;;;-0.25;100.00
21431;BME280;10876;49.038;10.608;2023-03-11T06:21:58;97939.19;;;-0.13;100.00
21431;BME280;10876;49.038;10.608;2023-03-11T06:24:25;97936.47;;;-0.18;100.00
21431;BME280;10876;49.038;10.608;2023-03-11T06:26:53;97930.19;;;0.09;100.00
21431;BME280;10876;49.038;10.608;2023-03-11T06:29:21;97931.09;;;0.40;100.00
21431;BME280;10876;49.038;10.608;2023-03-11T06:31:54;97937.16;;;0.10;100.00
21431;BME280;10876;49.038;10.608;2023-03-11T06:34:23;97943.53;;;-0.07;100.00
21431;BME280;10876;49.038;10.608;2023-03-11T06:36:50;97944.06;;;-0.10;100.00
21431;BME280;10876;49.038;10.608;2023-03-11T06:39:16;97946.41;;;0.29;100.00
21431;BME280;10876;49.038;10.608;2023-03-11T06:41:44;97953.69;;;0.34;100.00
21431;BME280;10876;49.038;10.608;2023-03-11T06:44:13;97939.06;;;1.44;100.00
21431;BME280;10876;49.038;10.608;2023-03-11T06:46:40;97946.56;;;1.72;100.00
21431;BME280;10876;49.038;10.608;2023-03-11T06:49:07;97957.31;;;1.98;100.00
21431;BME280;10876;49.038;10.608;2023-03-11T06:51:34;97951.31;;;2.27;100.00
21431;BME280;10876;49.038;10.608;2023-03-11T06:54:01;97961.09;;;1.97;100.00
21431;BME280;10876;49.038;10.608;2023-03-11T06:56:28;97953.91;;;1.46;100.00
21431;BME280;10876;49.038;10.608;2023-03-11T06:58:55;97962.25;;;1.34;100.00
21431;BME280;10876;49.038;10.608;2023-03-11T07:01:24;97962.53;;;1.33;100.00
21431;BME280;10876;49.038;10.608;2023-03-11T07:03:51;97965.47;;;1.31;100.00
21431;BME280;10876;49.038;10.608;2023-03-11T07:06:20;97957.94;;;1.44;100.00
21431;BME280;10876;49.038;10.608;2023-03-11T07:08:48;97961.16;;;1.30;100.00
21431;BME280;10876;49.038;10.608;2023-03-11T07:11:18;97968.47;;;1.35;100.00
21431;BME280;10876;49.038;10.608;2023-03-11T07:13:45;97983.28;;;1.27;100.00
21431;BME280;10876;49.038;10.608;2023-03-11T07:16:13;97983.81;;;1.29;100.00
21431;BME280;10876;49.038;10.608;2023-03-11T07:18:43;97987.59;;;1.69;100.00
21431;BME280;10876;49.038;10.608;2023-03-11T07:21:12;97997.84;;;1.37;100.00
21431;BME280;10876;49.038;10.608;2023-03-11T07:23:39;97992.47;;;1.67;100.00
21431;BME280;10876;49.038;10.608;2023-03-11T07:26:07;97995.69;;;1.54;100.00
21431;BME280;10876;49.038;10.608;2023-03-11T07:28:34;97989.75;;;1.21;100.00
21431;BME280;10876;49.038;10.608;2023-03-11T07:31:06;98007.03;;;1.51;100.00
21431;BME280;10876;49.038;10.608;2023-03-11T07:33:33;97997.31;;;1.70;100.00
21431;BME280;10876;49.038;10.608;2023-03-11T07:36:06;98008.09;;;1.70;100.00
21431;BME280;10876;49.038;10.608;2023-03-11T07:38:33;98019.44;;;1.98;100.00
21431;BME280;10876;49.038;10.608;2023-03-11T07:41:00;98020.50;;;2.02;100.00
21431;BME280;10876;49.038;10.608;2023-03-11T07:43:27;98014.53;;;2.20;100.00
21431;BME280;10876;49.038;10.608;2023-03-11T07:46:01;98022.66;;;1.90;100.00
21431;BME280;10876;49.038;10.608;2023-03-11T07:48:29;98018.88;;;2.06;100.00
21431;BME280;10876;49.038;10.608;2023-03-11T07:51:01;98016.94;;;2.17;100.00
21431;BME280;10876;49.038;10.608;2023-03-11T07:53:30;98014.72;;;2.34;100.00
21431;BME280;10876;49.038;10.608;2023-03-11T07:55:57;98012.03;;;2.44;100.00
21431;BME280;10876;49.038;10.608;2023-03-11T07:58:25;98019.50;;;2.63;100.00
21431;BME280;10876;49.038;10.608;2023-03-11T08:00:52;98011.06;;;2.75;100.00
21431;BME280;10876;49.038;10.608;2023-03-11T08:03:21;98017.44;;;3.04;100.00
21431;BME280;10876;49.038;10.608;2023-03-11T08:05:48;98020.13;;;3.04;100.00
21431;BME280;10876;49.038;10.608;2023-03-11T08:08:16;98018.56;;;2.98;100.00
21431;BME280;10876;49.038;10.608;2023-03-11T08:10:44;98010.91;;;3.05;100.00
21431;BME280;10876;49.038;10.608;2023-03-11T08:13:11;98020.84;;;2.70;100.00
21431;BME280;10876;49.038;10.608;2023-03-11T08:15:38;98022.97;;;2.79;100.00
21431;BME280;10876;49.038;10.608;2023-03-11T08:18:05;98029.47;;;2.78;100.00
21431;BME280;10876;49.038;10.608;2023-03-11T08:20:32;98036.09;;;2.31;100.00
21431;BME280;10876;49.038;10.608;2023-03-11T08:23:00;98050.66;;;2.40;100.00
21431;BME280;10876;49.038;10.608;2023-03-11T08:25:27;98045.97;;;2.66;100.00
21431;BME280;10876;49.038;10.608;2023-03-11T08:27:56;98048.19;;;3.19;100.00
21431;BME280;10876;49.038;10.608;2023-03-11T08:30:24;98036.94;;;3.75;100.00
21431;BME280;10876;49.038;10.608;2023-03-11T08:32:51;98038.59;;;3.36;100.00
21431;BME280;10876;49.038;10.608;2023-03-11T08:35:18;98034.72;;;3.03;100.00
21431;BME280;10876;49.038;10.608;2023-03-11T08:37:45;98052.69;;;2.84;100.00
21431;BME280;10876;49.038;10.608;2023-03-11T08:40:12;98049.94;;;2.89;100.00
21431;BME280;10876;49.038;10.608;2023-03-11T08:42:39;98052.59;;;2.99;100.00
21431;BME280;10876;49.038;10.608;2023-03-11T08:45:09;98063.72;;;2.98;100.00
21431;BME280;10876;49.038;10.608;2023-03-11T08:47:37;98061.47;;;2.45;100.00
21431;BME280;10876;49.038;10.608;2023-03-11T08:50:05;98072.06;;;2.21;100.00
21431;BME280;10876;49.038;10.608;2023-03-11T08:52:33;98073.91;;;2.36;100.00
21431;BME280;10876;49.038;10.608;2023-03-11T08:55:00;98066.03;;;3.20;100.00
21431;BME280;10876;49.038;10.608;2023-03-11T08:57:29;98067.69;;;3.10;100.00
21431;BME280;10876;49.038;10.608;2023-03-11T08:59:56;98068.09;;;3.38;100.00
21431;BME280;10876;49.038;10.608;2023-03-11T09:02:26;98077.84;;;3.34;100.00
21431;BME280;10876;49.038;10.608;2023-03-11T09:04:53;98077.28;;;2.87;100.00
21431;BME280;10876;49.038;10.608;2023-03-11T09:07:20;98082.06;;;3.06;100.00
21431;BME280;10876;49.038;10.608;2023-03-11T09:09:47;98080.44;;;3.05;100.00
21431;BME280;10876;49.038;10.608;2023-03-11T09:12:14;98088.91;;;2.83;100.00
21431;BME280;10876;49.038;10.608;2023-03-11T09:14:42;98091.66;;;2.78;100.00
21431;BME280;10876;49.038;10.608;2023-03-11T09:17:09;98090.00;;;2.77;100.00
21431;BME280;10876;49.038;10.608;2023-03-11T09:19:40;98088.41;;;2.81;100.00
21431;BME280;10876;49.038;10.608;2023-03-11T09:22:07;98083.47;;;2.88;100.00
21431;BME280;10876;49.038;10.608;2023-03-11T09:24:34;98095.88;;;2.99;100.00
21431;BME280;10876;49.038;10.608;2023-03-11T09:27:01;98095.47;;;2.66;100.00
21431;BME280;10876;49.038;10.608;2023-03-11T09:29:28;98102.78;;;2.61;100.00
21431;BME280;10876;49.038;10.608;2023-03-11T09:31:56;98094.13;;;2.64;100.00
21431;BME280;10876;49.038;10.608;2023-03-11T09:34:23;98104.63;;;2.76;100.00
21431;BME280;10876;49.038;10.608;2023-03-11T09:36:52;98098.97;;;2.62;100.00
21431;BME280;10876;49.038;10.608;2023-03-11T09:39:19;98101.44;;;2.53;100.00
21431;BME280;10876;49.038;10.608;2023-03-11T09:41:52;98104.63;;;2.65;100.00
21431;BME280;10876;49.038;10.608;2023-03-11T09:44:23;98099.22;;;2.81;100.00
21431;BME280;10876;49.038;10.608;2023-03-11T09:47:22;98105.19;;;2.62;100.00
21431;BME280;10876;49.038;10.608;2023-03-11T09:50:13;98126.31;;;2.45;100.00
21431;BME280;10876;49.038;10.608;2023-03-11T09:52:51;98123.06;;;2.43;100.00
21431;BME280;10876;49.038;10.608;2023-03-11T09:55:35;98132.25;;;2.42;100.00
21431;BME280;10876;49.038;10.608;2023-03-11T09:58:09;98123.31;;;2.57;100.00
21431;BME280;10876;49.038;10.608;2023-03-11T10:00:38;98125.75;;;2.58;100.00
21431;BME280;10876;49.038;10.608;2023-03-11T10:03:14;98125.16;;;2.71;100.00
21431;BME280;10876;49.038;10.608;2023-03-11T10:05:45;98127.78;;;3.07;100.00
21431;BME280;10876;49.038;10.608;2023-03-11T10:08:20;98119.13;;;3.99;100.00
21431;BME280;10876;49.038;10.608;2023-03-11T10:10:57;98124.41;;;4.15;100.00
21431;BME280;10876;49.038;10.608;2023-03-11T10:13:33;98125.94;;;4.26;100.00
21431;BME280;10876;49.038;10.608;2023-03-11T10:16:09;98119.38;;;3.64;100.00
21431;BME280;10876;49.038;10.608;2023-03-11T10:18:55;98125.31;;;3.60;100.00
21431;BME280;10876;49.038;10.608;2023-03-11T10:21:34;98119.25;;;3.34;100.00
21431;BME280;10876;49.038;10.608;2023-03-11T10:24:17;98130.16;;;3.14;100.00
21431;BME280;10876;49.038;10.608;2023-03-11T10:26:48;98119.66;;;3.02;100.00
21431;BME280;10876;49.038;10.608;2023-03-11T10:29:20;98122.50;;;3.31;100.00
21431;BME280;10876;49.038;10.608;2023-03-11T10:31:54;98106.63;;;3.64;100.00
21431;BME280;10876;49.038;10.608;2023-03-11T10:34:26;98099.94;;;3.51;100.00
21431;BME280;10876;49.038;10.608;2023-03-11T10:37:02;98109.19;;;3.45;100.00
21431;BME280;10876;49.038;10.608;2023-03-11T10:39:33;98105.00;;;3.13;100.00
21431;BME280;10876;49.038;10.608;2023-03-11T10:42:02;98096.22;;;3.42;100.00
21431;BME280;10876;49.038;10.608;2023-03-11T10:44:32;98112.09;;;3.04;100.00
21431;BME280;10876;49.038;10.608;2023-03-11T10:47:00;98121.56;;;3.07;100.00
21431;BME280;10876;49.038;10.608;2023-03-11T10:49:28;98107.63;;;3.29;100.00
21431;BME280;10876;49.038;10.608;2023-03-11T10:51:55;98116.84;;;3.28;100.00
21431;BME280;10876;49.038;10.608;2023-03-11T10:54:25;98113.50;;;3.46;100.00
21431;BME280;10876;49.038;10.608;2023-03-11T10:56:57;98108.16;;;3.36;100.00
21431;BME280;10876;49.038;10.608;2023-03-11T10:59:27;98103.34;;;3.23;100.00
21431;BME280;10876;49.038;10.608;2023-03-11T11:01:58;98097.31;;;3.41;100.00
21431;BME280;10876;49.038;10.608;2023-03-11T11:04:28;98090.22;;;3.50;100.00
21431;BME280;10876;49.038;10.608;2023-03-11T11:06:55;98099.56;;;3.24;100.00
21431;BME280;10876;49.038;10.608;2023-03-11T11:09:23;98086.56;;;3.26;100.00
21431;BME280;10876;49.038;10.608;2023-03-11T11:12:05;98088.19;;;3.27;100.00
21431;BME280;10876;49.038;10.608;2023-03-11T11:14:45;98093.97;;;3.54;100.00
21431;BME280;10876;49.038;10.608;2023-03-11T11:17:17;98088.69;;;3.34;100.00
21431;BME280;10876;49.038;10.608;2023-03-11T11:19:45;98102.84;;;3.15;100.00
21431;BME280;10876;49.038;10.608;2023-03-11T11:22:16;98089.75;;;3.38;100.00
21431;BME280;10876;49.038;10.608;2023-03-11T11:24:45;98097.34;;;3.36;100.00
21431;BME280;10876;49.038;10.608;2023-03-11T11:27:19;98101.66;;;3.32;100.00
21431;BME280;10876;49.038;10.608;2023-03-11T11:29:47;98098.38;;;3.40;100.00
21431;BME280;10876;49.038;10.608;2023-03-11T11:32:29;98085.44;;;3.76;100.00
21431;BME280;10876;49.038;10.608;2023-03-11T11:34:58;98089.75;;;3.38;100.00
21431;BME280;10876;49.038;10.608;2023-03-11T11:37:28;98085.47;;;3.27;100.00
21431;BME280;10876;49.038;10.608;2023-03-11T11:40:03;98088.13;;;3.37;100.00
21431;BME280;10876;49.038;10.608;2023-03-11T11:42:38;98082.22;;;3.30;100.00
21431;BME280;10876;49.038;10.608;2023-03-11T11:45:13;98085.50;;;3.22;100.00
21431;BME280;10876;49.038;10.608;2023-03-11T11:47:43;98085.94;;;3.39;100.00
21431;BME280;10876;49.038;10.608;2023-03-11T11:50:17;98083.25;;;3.39;100.00
21431;BME280;10876;49.038;10.608;2023-03-11T11:52:50;98088.22;;;3.16;100.00
21431;BME280;10876;49.038;10.608;2023-03-11T11:55:21;98095.31;;;3.07;100.00
21431;BME280;10876;49.038;10.608;2023-03-11T11:57:51;98093.16;;;3.09;100.00
21431;BME280;10876;49.038;10.608;2023-03-11T12:00:20;98092.03;;;3.15;100.00
21431;BME280;10876;49.038;10.608;2023-03-11T12:03:07;98087.19;;;3.12;100.00
21431;BME280;10876;49.038;10.608;2023-03-11T12:05:44;98094.75;;;3.10;100.00
21431;BME280;10876;49.038;10.608;2023-03-11T12:08:17;98084.25;;;3.04;100.00
21431;BME280;10876;49.038;10.608;2023-03-11T12:10:52;98082.81;;;3.16;100.00
21431;BME280;10876;49.038;10.608;2023-03-11T12:13:45;98080.66;;;3.19;100.00
21431;BME280;10876;49.038;10.608;2023-03-11T12:16:22;98080.13;;;3.11;100.00
21431;BME280;10876;49.038;10.608;2023-03-11T12:18:56;98075.22;;;3.24;100.00
21431;BME280;10876;49.038;10.608;2023-03-11T12:21:43;98061.16;;;3.22;100.00
21431;BME280;10876;49.038;10.608;2023-03-11T12:24:27;98056.75;;;3.31;100.00
21431;BME280;10876;49.038;10.608;2023-03-11T12:26:59;98066.03;;;3.14;100.00
21431;BME280;10876;49.038;10.608;2023-03-11T12:29:32;98054.56;;;3.38;100.00
21431;BME280;10876;49.038;10.608;2023-03-11T12:32:01;98057.09;;;3.64;100.00
21431;BME280;10876;49.038;10.608;2023-03-11T12:34:32;98051.78;;;3.48;100.00
21431;BME280;10876;49.038;10.608;2023-03-11T12:37:00;98048.84;;;3.79;100.00
21431;BME280;10876;49.038;10.608;2023-03-11T12:39:30;98041.69;;;3.93;100.00
21431;BME280;10876;49.038;10.608;2023-03-11T12:42:19;98047.28;;;3.73;100.00
21431;BME280;10876;49.038;10.608;2023-03-11T12:44:48;98042.81;;;3.53;100.00
21431;BME280;10876;49.038;10.608;2023-03-11T12:47:25;98046.59;;;3.52;100.00
21431;BME280;10876;49.038;10.608;2023-03-11T12:49:54;98050.72;;;3.49;100.00
21431;BME280;10876;49.038;10.608;2023-03-11T12:52:29;98048.72;;;3.60;100.00
21431;BME280;10876;49.038;10.608;2023-03-11T12:55:27;98045.38;;;3.34;100.00
21431;BME280;10876;49.038;10.608;2023-03-11T12:58:01;98045.94;;;3.31;100.00
21431;BME280;10876;49.038;10.608;2023-03-11T13:00:42;98047.09;;;3.59;100.00